Hlavní strana
METAR-TAF:

METAR-TAF

Letiště :

Skellefteå, Švédsko

zeměpisná šířka: 64-38N, zeměpisná délka: 021-05E, výška: 49 m

Aktuální stav počasí

Zpráva byla vytvořena před 23 minutami, v 19:20 UTC
Západojihozápadní vítr 13 kt
Teplota 7°C
Vlhkost vzduchu 61%
Tlak 991 hPa
Viditelnost 10 km a více
Žádná oblačnost pod 1500 m, nevyskytují se cumulonimby.

METAR: ESNS 221920Z 24013KT CAVOK 07/00 Q0991

Čas: 21:43 (19:43 UTC)

Předpověď počasí

Zpráva byla vytvořena před 2 hodinami a 13 minutami, v 17:30 UTC
Předpověď platná od 22 v 18 UTC do 22 v 22 UTC
Západojihozápadní vítr 12 kt s nárazy do 25 kt
Viditelnost 10 km a více
Žádná oblačnost pod 1500 m, nevyskytují se cumulonimby.

TAF: ESNS 221730Z 2218/2222 25012G25KT CAVOK

Stav a předpovědi počasí z více než 4 000 letišť (zprávy METAR a TAF).

Červené a žluté tečky na mapě představují dostupné meteorologické stanice.

Když kurzor umístíte na tečku, zobrazí se název stanice.

Pak kliknutím zobrazíte stav a předpověď počasí.

Chcete-li změnit mapu, kliknutím na zelené tlačítko se znaménkem +mapu přiblížíte, kliknutím na zelené tlačítko se znaménkem – mapu oddálíte a kliknutím na zelené šipky přejdete na sousední mapy.


METAR-TAF: